Time;durP1;ratioP1;P1;durP2;ratioP2;P2;SDS_P1;SDS_P2;PMS_P1;PMS_P2;Temp;Humidity;BMP_temperature;BMP_pressure;BME280_temperature;BME280_humidity;BME280_pressure;Samples;Min_cycle;Max_cycle;Signal;HPM_P1;HPM_P2
2023/12/17 00:00:38;;;;;;;;;;;;;;;11.64;34.39;100828.53;5115263;28;19920;-68
2023/12/17 00:03:03;;;;;;;;;;;;;;;11.67;34.18;100835.41;5098104;28;19920;-70
2023/12/17 00:05:29;;;;;;;;;;;;;;;11.73;34.32;100845.38;5086239;28;19919;-71
2023/12/17 00:07:54;;;;;;;;;;;;;;;11.77;34.07;100858.25;5081226;28;20419;-70
2023/12/17 00:10:21;;;;;;;;;;;;;;;11.75;32.85;100867.56;5094977;28;20353;-70
2023/12/17 00:12:46;;;;;;;;;;;;;;;11.78;34.03;100875.25;5105399;28;19928;-70
2023/12/17 00:15:11;;;;;;;;;;;;;;;11.76;32.97;100871.91;5094340;28;20004;-71
2023/12/17 00:17:37;;;;;;;;;;;;;;;11.81;34.32;100866.78;5103715;28;19986;-71
2023/12/17 00:20:03;;;;;;;;;;;;;;;11.81;33.28;100858.69;5100441;28;19924;-71
2023/12/17 00:22:28;;;;;;;;;;;;;;;11.87;33.51;100862.47;5115284;28;20368;-71
2023/12/17 00:24:54;;;;;;;;;;;;;;;11.89;33.68;100855.91;5107492;28;19965;-68
2023/12/17 00:27:20;;;;;;;;;;;;;;;11.88;31.98;100851.53;5096430;28;20383;-67
2023/12/17 00:29:45;;;;;;;;;;;;;;;11.97;33.77;100845.03;5108085;28;19911;-67
2023/12/17 00:32:10;;;;;;;;;;;;;;;11.93;31.54;100846.44;5101336;28;19957;-69
2023/12/17 00:34:36;;;;;;;;;;;;;;;12.04;32.77;100845.09;5106750;28;20022;-70
2023/12/17 00:37:01;;;;;;;;;;;;;;;12.09;32.71;100848.03;5094268;28;20291;-69
2023/12/17 00:39:27;;;;;;;;;;;;;;;12.10;32.51;100847.00;5095195;28;19916;-70
2023/12/17 00:41:52;;;;;;;;;;;;;;;12.08;31.61;100856.31;5100337;28;19911;-69
2023/12/17 00:44:17;;;;;;;;;;;;;;;12.08;33.36;100853.63;5095179;28;19916;-69
2023/12/17 00:46:43;;;;;;;;;;;;;;;12.09;32.84;100857.94;5094086;28;20146;-69
2023/12/17 00:49:08;;;;;;;;;;;;;;;12.12;33.04;100861.09;5106335;28;19919;-69
2023/12/17 00:51:34;;;;;;;;;;;;;;;12.12;32.35;100855.72;5075026;28;20030;-69
2023/12/17 00:53:59;;;;;;;;;;;;;;;12.11;32.35;100853.19;5096217;28;19916;-70
2023/12/17 00:56:25;;;;;;;;;;;;;;;12.11;33.06;100861.28;5096805;28;19967;-70
2023/12/17 00:58:50;;;;;;;;;;;;;;;12.11;34.15;100858.59;5093826;28;19969;-71
2023/12/17 01:01:15;;;;;;;;;;;;;;;12.10;33.89;100859.63;5092877;28;19912;-70
2023/12/17 01:03:41;;;;;;;;;;;;;;;12.04;34.04;100869.31;5093298;28;19931;-70
2023/12/17 01:06:06;;;;;;;;;;;;;;;11.97;34.35;100857.66;5097736;28;20298;-69
2023/12/17 01:08:32;;;;;;;;;;;;;;;11.92;34.32;100860.09;5098910;28;21091;-72
2023/12/17 01:10:57;;;;;;;;;;;;;;;11.86;34.52;100858.13;5110305;28;19912;-68
2023/12/17 01:13:22;;;;;;;;;;;;;;;11.83;33.96;100859.38;5113059;28;20116;-69
2023/12/17 01:15:48;;;;;;;;;;;;;;;11.78;33.72;100862.63;5105948;28;19950;-70
2023/12/17 01:18:13;;;;;;;;;;;;;;;11.66;34.57;100869.53;5107292;28;19920;-70
2023/12/17 01:20:40;;;;;;;;;;;;;;;11.51;34.96;100864.19;5094117;28;20507;-69
2023/12/17 01:23:05;;;;;;;;;;;;;;;11.46;33.88;100865.78;5113151;28;19920;-68
2023/12/17 01:25:31;;;;;;;;;;;;;;;11.42;33.90;100876.94;5093487;28;20522;-69
2023/12/17 01:27:56;;;;;;;;;;;;;;;11.41;34.51;100872.56;5099719;28;19919;-69
2023/12/17 01:30:22;;;;;;;;;;;;;;;11.38;35.15;100867.56;5080352;28;20322;-70
2023/12/17 01:32:47;;;;;;;;;;;;;;;11.37;34.84;100865.91;5078418;28;19912;-71
2023/12/17 01:35:12;;;;;;;;;;;;;;;11.29;34.89;100866.03;5078605;28;20368;-70
2023/12/17 01:37:38;;;;;;;;;;;;;;;11.23;35.80;100864.91;5113257;28;20392;-69
2023/12/17 01:40:03;;;;;;;;;;;;;;;11.13;36.03;100864.38;5096241;28;20265;-70
2023/12/17 01:42:29;;;;;;;;;;;;;;;11.06;36.42;100870.69;5113790;28;19980;-70
2023/12/17 01:44:54;;;;;;;;;;;;;;;10.94;36.46;100865.78;5102838;28;20280;-69
2023/12/17 01:47:19;;;;;;;;;;;;;;;10.85;36.44;100856.16;5109969;28;20360;-69
2023/12/17 01:49:45;;;;;;;;;;;;;;;10.80;36.21;100850.50;5103926;28;20396;-70
2023/12/17 01:52:10;;;;;;;;;;;;;;;10.74;36.69;100857.44;5073534;28;20327;-68
2023/12/17 01:54:36;;;;;;;;;;;;;;;10.71;36.82;100863.16;5106243;28;19947;-68
2023/12/17 01:57:01;;;;;;;;;;;;;;;10.65;36.46;100856.69;5104820;28;19912;-68
2023/12/17 01:59:27;;;;;;;;;;;;;;;10.62;36.68;100858.91;5090889;28;20288;-68
2023/12/17 02:01:53;;;;;;;;;;;;;;;10.58;36.91;100863.00;5074861;28;20367;-68
2023/12/17 02:04:24;;;;;;;;;;;;;;;10.53;37.34;100871.59;5094070;28;20347;-69
2023/12/17 02:06:50;;;;;;;;;;;;;;;10.51;36.75;100862.91;5093064;28;19916;-68
2023/12/17 02:09:15;;;;;;;;;;;;;;;10.45;36.89;100861.75;5095853;28;19916;-69
2023/12/17 02:11:41;;;;;;;;;;;;;;;10.42;37.30;100858.63;5092105;28;19920;-68
2023/12/17 02:14:06;;;;;;;;;;;;;;;10.37;37.23;100863.72;5094697;28;20288;-68
2023/12/17 02:16:31;;;;;;;;;;;;;;;10.34;36.96;100864.88;5105132;28;19919;-69
2023/12/17 02:18:57;;;;;;;;;;;;;;;10.33;37.63;100871.28;5099738;28;19923;-69
2023/12/17 02:21:23;;;;;;;;;;;;;;;10.28;37.68;100879.84;5104374;28;19911;-69
2023/12/17 02:23:48;;;;;;;;;;;;;;;10.25;37.36;100876.69;5097104;28;19965;-69
2023/12/17 02:26:14;;;;;;;;;;;;;;;10.19;37.95;100878.25;5093492;28;20047;-72
2023/12/17 02:28:39;;;;;;;;;;;;;;;10.15;37.96;100876.13;5109460;28;20276;-71
2023/12/17 02:31:04;;;;;;;;;;;;;;;10.12;37.72;100882.66;5077122;28;19912;-71
2023/12/17 02:33:30;;;;;;;;;;;;;;;10.05;38.14;100881.75;5092270;28;19912;-70
2023/12/17 02:35:55;;;;;;;;;;;;;;;10.01;38.03;100885.78;5084176;28;20019;-70
2023/12/17 02:38:20;;;;;;;;;;;;;;;9.97;37.87;100881.78;5084943;28;20015;-69
2023/12/17 02:40:46;;;;;;;;;;;;;;;9.93;38.14;100885.84;5106532;28;19926;-69
2023/12/17 02:43:11;;;;;;;;;;;;;;;9.91;38.36;100885.19;5112472;28;19915;-69
2023/12/17 02:45:36;;;;;;;;;;;;;;;9.90;37.94;100897.78;5100909;28;19934;-68
2023/12/17 02:48:02;;;;;;;;;;;;;;;9.89;38.76;100894.25;5100531;28;20315;-69
2023/12/17 02:50:28;;;;;;;;;;;;;;;9.89;38.53;100896.91;5109079;28;19959;-69
2023/12/17 02:52:53;;;;;;;;;;;;;;;9.86;38.73;100891.94;5105943;28;19963;-69
2023/12/17 02:55:19;;;;;;;;;;;;;;;9.86;38.73;100889.25;5111061;28;19912;-69
2023/12/17 02:57:44;;;;;;;;;;;;;;;9.84;38.73;100895.78;5077787;28;19919;-68
2023/12/17 03:00:10;;;;;;;;;;;;;;;9.83;38.72;100894.13;5101348;28;19927;-68
2023/12/17 03:02:35;;;;;;;;;;;;;;;9.79;38.62;100899.03;5105659;28;19916;-68
2023/12/17 03:05:00;;;;;;;;;;;;;;;9.77;38.90;100902.88;5097028;28;19916;-69
2023/12/17 03:07:26;;;;;;;;;;;;;;;9.72;39.05;100911.47;5111291;28;19919;-67
2023/12/17 03:09:54;;;;;;;;;;;;;;;9.72;39.35;100907.97;5112418;28;19912;-67
2023/12/17 03:12:19;;;;;;;;;;;;;;;9.68;39.61;100910.16;5110936;28;20340;-69
2023/12/17 03:14:47;;;;;;;;;;;;;;;9.65;39.51;100905.13;5094115;28;19912;-69
2023/12/17 03:17:12;;;;;;;;;;;;;;;9.64;39.57;100900.78;5112711;28;19912;-69
2023/12/17 03:19:38;;;;;;;;;;;;;;;9.56;39.93;100900.81;5112417;28;19935;-69
2023/12/17 03:22:03;;;;;;;;;;;;;;;9.49;39.78;100898.84;5094571;28;20003;-69
2023/12/17 03:24:29;;;;;;;;;;;;;;;9.46;39.82;100906.41;5057740;28;19986;-70
2023/12/17 03:26:55;;;;;;;;;;;;;;;9.41;39.92;100904.25;5093618;28;20352;-69
2023/12/17 03:29:20;;;;;;;;;;;;;;;9.39;39.92;100900.09;5075493;28;19969;-69
2023/12/17 03:31:46;;;;;;;;;;;;;;;9.39;40.06;100895.56;5093641;28;19920;-69
2023/12/17 03:34:12;;;;;;;;;;;;;;;9.36;39.98;100901.28;5094239;28;19935;-69
2023/12/17 03:36:37;;;;;;;;;;;;;;;9.35;39.91;100894.22;5091870;28;19912;-69
2023/12/17 03:39:06;;;;;;;;;;;;;;;9.37;39.46;100904.78;5113582;28;20328;-69
2023/12/17 03:41:31;;;;;;;;;;;;;;;9.35;39.74;100896.91;5113257;28;19916;-69
2023/12/17 03:43:57;;;;;;;;;;;;;;;9.36;39.89;100893.25;5109922;28;19924;-69
2023/12/17 03:46:24;;;;;;;;;;;;;;;9.34;39.91;100894.41;5113613;28;19916;-69
2023/12/17 03:48:49;;;;;;;;;;;;;;;9.30;40.02;100900.13;5113543;28;20020;-69
2023/12/17 03:51:15;;;;;;;;;;;;;;;9.29;40.35;100905.66;5085649;28;19912;-69
2023/12/17 03:53:40;;;;;;;;;;;;;;;9.29;40.27;100897.63;5093293;28;19912;-69
2023/12/17 03:56:09;;;;;;;;;;;;;;;9.30;40.13;100901.97;5089757;28;19912;-69
2023/12/17 03:58:34;;;;;;;;;;;;;;;9.29;40.14;100906.50;5093052;28;20010;-69
2023/12/17 04:01:00;;;;;;;;;;;;;;;9.31;40.23;100906.31;5093040;28;20360;-69
2023/12/17 04:03:26;;;;;;;;;;;;;;;9.31;40.40;100911.69;5062009;28;19927;-69
2023/12/17 04:05:51;;;;;;;;;;;;;;;9.30;40.56;100904.63;5096568;28;19954;-69
2023/12/17 04:08:16;;;;;;;;;;;;;;;9.31;40.61;100895.59;5096643;28;19919;-69
2023/12/17 04:10:42;;;;;;;;;;;;;;;9.33;40.54;100904.28;5096909;28;20277;-69
2023/12/17 04:13:07;;;;;;;;;;;;;;;9.34;40.42;100900.59;5078250;28;19943;-69
2023/12/17 04:15:32;;;;;;;;;;;;;;;9.37;40.39;100897.56;5113624;28;19912;-70
2023/12/17 04:17:58;;;;;;;;;;;;;;;9.38;40.34;100901.94;5117079;28;19919;-69
2023/12/17 04:20:23;;;;;;;;;;;;;;;9.36;40.71;100911.16;5113169;28;19916;-69
2023/12/17 04:22:49;;;;;;;;;;;;;;;9.33;40.75;100903.47;5096270;28;19917;-68
2023/12/17 04:25:14;;;;;;;;;;;;;;;9.35;40.62;100893.41;5096375;28;19923;-69
2023/12/17 04:27:40;;;;;;;;;;;;;;;9.33;40.61;100888.22;5109419;28;19919;-70
2023/12/17 04:30:06;;;;;;;;;;;;;;;9.34;40.55;100892.56;5116616;28;20329;-69
2023/12/17 04:32:31;;;;;;;;;;;;;;;9.33;40.43;100865.94;5116909;28;19965;-69
2023/12/17 04:34:57;;;;;;;;;;;;;;;9.32;40.68;100869.63;5116913;28;19954;-68
2023/12/17 04:37:22;;;;;;;;;;;;;;;9.33;40.83;100877.50;5116650;28;19911;-69
2023/12/17 04:39:48;;;;;;;;;;;;;;;9.31;40.84;100868.81;5101372;28;19959;-69
2023/12/17 04:42:14;;;;;;;;;;;;;;;9.29;40.63;100870.81;5096277;28;19963;-68
2023/12/17 04:44:40;;;;;;;;;;;;;;;9.25;40.98;100861.47;5096276;28;19971;-68
2023/12/17 04:47:05;;;;;;;;;;;;;;;9.27;41.18;100852.22;5096181;28;19965;-68
2023/12/17 04:49:30;;;;;;;;;;;;;;;9.26;40.85;100845.19;5096225;28;19912;-68
2023/12/17 04:51:56;;;;;;;;;;;;;;;9.27;41.10;100830.78;5096450;28;19912;-69
2023/12/17 04:54:21;;;;;;;;;;;;;;;9.25;40.85;100829.31;5095880;28;19912;-68
2023/12/17 04:56:46;;;;;;;;;;;;;;;9.24;40.89;100814.22;5096519;28;20226;-68
2023/12/17 04:59:12;;;;;;;;;;;;;;;9.22;41.27;100813.56;5096120;28;20053;-68
2023/12/17 05:01:37;;;;;;;;;;;;;;;9.20;41.15;100804.88;5095762;28;20030;-68
2023/12/17 05:04:02;;;;;;;;;;;;;;;9.18;41.08;100806.91;5095792;28;19916;-68
2023/12/17 05:06:28;;;;;;;;;;;;;;;9.16;41.21;100806.25;5096052;28;19983;-69
2023/12/17 05:08:53;;;;;;;;;;;;;;;9.16;41.04;100811.59;5095787;28;19916;-68
2023/12/17 05:11:22;;;;;;;;;;;;;;;9.16;40.82;100811.59;5077367;28;19912;-68
2023/12/17 05:13:47;;;;;;;;;;;;;;;9.14;40.92;100821.63;5077283;28;20094;-68
2023/12/17 05:16:12;;;;;;;;;;;;;;;9.11;41.13;100818.31;5095863;28;19948;-68
2023/12/17 05:18:38;;;;;;;;;;;;;;;9.11;41.07;100809.44;5109024;28;20376;-70
2023/12/17 05:21:04;;;;;;;;;;;;;;;9.14;41.05;100805.56;5095320;28;19935;-68
2023/12/17 05:23:29;;;;;;;;;;;;;;;9.10;41.12;100799.72;5095648;28;20292;-68
2023/12/17 05:25:54;;;;;;;;;;;;;;;9.10;41.35;100797.91;5095345;28;19912;-68
2023/12/17 05:28:20;;;;;;;;;;;;;;;9.13;40.94;100787.84;5095464;28;19938;-68
2023/12/17 05:30:46;;;;;;;;;;;;;;;9.15;40.86;100783.94;5095279;28;20288;-68
2023/12/17 05:33:12;;;;;;;;;;;;;;;9.15;41.13;100775.09;5095451;28;19967;-68
2023/12/17 05:35:37;;;;;;;;;;;;;;;9.17;41.05;100759.66;5103660;28;19958;-68
2023/12/17 05:38:03;;;;;;;;;;;;;;;9.18;40.89;100764.03;5115840;28;19912;-68
2023/12/17 05:40:28;;;;;;;;;;;;;;;9.16;41.07;100741.94;5115507;28;19912;-68
2023/12/17 05:42:54;;;;;;;;;;;;;;;9.14;40.90;100726.03;5096914;28;19923;-68
2023/12/17 05:45:19;;;;;;;;;;;;;;;9.18;40.87;100735.38;5099044;28;19912;-68
2023/12/17 05:47:46;;;;;;;;;;;;;;;9.23;40.81;100732.16;5094749;28;19974;-68
2023/12/17 05:50:11;;;;;;;;;;;;;;;9.18;40.82;100723.84;5076480;28;19916;-69
2023/12/17 05:52:37;;;;;;;;;;;;;;;9.19;40.71;100712.09;5095004;28;19918;-69
2023/12/17 05:55:03;;;;;;;;;;;;;;;9.20;40.89;100717.28;5094200;28;20261;-69
2023/12/17 05:57:28;;;;;;;;;;;;;;;9.22;40.89;100707.22;5094661;28;19919;-69
2023/12/17 05:59:54;;;;;;;;;;;;;;;9.23;40.51;100695.50;5094789;28;19920;-69
2023/12/17 06:02:19;;;;;;;;;;;;;;;9.20;41.07;100693.16;5082194;28;19962;-69
2023/12/17 06:04:44;;;;;;;;;;;;;;;9.19;40.73;100686.13;5094775;28;19919;-69
2023/12/17 06:07:10;;;;;;;;;;;;;;;9.20;40.90;100682.44;5103379;28;20348;-69
2023/12/17 06:09:35;;;;;;;;;;;;;;;9.23;40.65;100675.88;5114670;28;19912;-69
2023/12/17 06:12:00;;;;;;;;;;;;;;;9.24;40.58;100681.06;5114574;28;19920;-69
2023/12/17 06:14:27;;;;;;;;;;;;;;;9.27;41.44;100682.56;5106860;28;20444;-69
2023/12/17 06:16:53;;;;;;;;;;;;;;;9.29;40.98;100657.25;5076123;28;20288;-69
2023/12/17 06:19:18;;;;;;;;;;;;;;;9.36;40.75;100668.09;5094426;28;19919;-69
2023/12/17 06:21:43;;;;;;;;;;;;;;;9.40;40.42;100666.72;5093917;28;20296;-69
2023/12/17 06:24:09;;;;;;;;;;;;;;;9.42;40.83;100664.69;5093593;28;19977;-68
2023/12/17 06:26:37;;;;;;;;;;;;;;;9.48;40.53;100663.13;5094213;28;19912;-68
2023/12/17 06:29:03;;;;;;;;;;;;;;;9.52;40.35;100664.41;5075939;28;19919;-68
2023/12/17 06:31:28;;;;;;;;;;;;;;;9.54;40.82;100664.25;5094375;28;19920;-69
2023/12/17 06:33:54;;;;;;;;;;;;;;;9.60;39.98;100656.31;5094291;28;20710;-69
2023/12/17 06:36:20;;;;;;;;;;;;;;;9.62;39.88;100650.75;5108652;28;19918;-69
2023/12/17 06:38:46;;;;;;;;;;;;;;;9.64;40.57;100648.72;5114654;28;19912;-69
2023/12/17 06:41:11;;;;;;;;;;;;;;;9.66;40.44;100636.78;5101519;28;20436;-69
2023/12/17 06:43:36;;;;;;;;;;;;;;;9.70;40.86;100629.22;5093714;28;19916;-68
2023/12/17 06:46:03;;;;;;;;;;;;;;;9.73;40.37;100628.84;5076003;28;19912;-69
2023/12/17 06:48:29;;;;;;;;;;;;;;;9.75;40.19;100621.47;5094923;28;19912;-69
2023/12/17 06:50:54;;;;;;;;;;;;;;;9.76;40.25;100617.75;5094090;28;20061;-69
2023/12/17 06:53:19;;;;;;;;;;;;;;;9.77;40.78;100608.69;5094286;28;20367;-69
2023/12/17 06:55:45;;;;;;;;;;;;;;;9.79;40.24;100612.03;5110352;28;19912;-69
2023/12/17 06:58:11;;;;;;;;;;;;;;;9.84;40.15;100603.41;5080884;28;19917;-69
2023/12/17 07:00:36;;;;;;;;;;;;;;;9.85;40.38;100607.78;5057995;28;19913;-69
2023/12/17 07:03:01;;;;;;;;;;;;;;;9.84;40.80;100609.63;5073409;28;19924;-69
2023/12/17 07:05:27;;;;;;;;;;;;;;;9.89;39.99;100611.75;5073541;28;19913;-69
2023/12/17 07:07:52;;;;;;;;;;;;;;;9.91;40.42;100609.69;5073554;28;19913;-69
2023/12/17 07:10:18;;;;;;;;;;;;;;;9.93;40.31;100614.88;5073696;28;19934;-69
2023/12/17 07:12:43;;;;;;;;;;;;;;;9.96;40.15;100618.03;5093514;28;19920;-69
2023/12/17 07:15:09;;;;;;;;;;;;;;;9.99;39.74;100603.41;5075290;28;19918;-69
2023/12/17 07:17:34;;;;;;;;;;;;;;;10.03;39.76;100604.72;5093633;28;20019;-69
2023/12/17 07:19:59;;;;;;;;;;;;;;;10.05;39.54;100597.31;5094281;28;19935;-69
2023/12/17 07:22:25;;;;;;;;;;;;;;;10.05;39.16;100578.53;5095652;28;19923;-69
2023/12/17 07:24:50;;;;;;;;;;;;;;;10.04;39.36;100569.63;5113850;28;19950;-69
2023/12/17 07:27:16;;;;;;;;;;;;;;;10.08;40.15;100564.72;5078386;28;19982;-68
2023/12/17 07:29:41;;;;;;;;;;;;;;;10.10;39.84;100553.78;5113685;28;19912;-68
2023/12/17 07:32:06;;;;;;;;;;;;;;;10.11;40.08;100555.47;5113698;28;19918;-69
2023/12/17 07:34:32;;;;;;;;;;;;;;;10.10;39.84;100554.63;5113776;28;19911;-69
2023/12/17 07:36:59;;;;;;;;;;;;;;;10.08;40.26;100552.16;5095021;28;20292;-69
2023/12/17 07:39:24;;;;;;;;;;;;;;;10.10;40.22;100546.56;5097075;28;20031;-69
2023/12/17 07:41:50;;;;;;;;;;;;;;;10.10;40.20;100532.34;5097231;28;19970;-69
2023/12/17 07:44:15;;;;;;;;;;;;;;;10.08;40.56;100535.19;5078758;28;19922;-69
2023/12/17 07:46:40;;;;;;;;;;;;;;;10.08;40.37;100545.94;5083667;28;19951;-69
2023/12/17 07:49:06;;;;;;;;;;;;;;;10.08;40.41;100540.56;5117409;28;19937;-69
2023/12/17 07:51:33;;;;;;;;;;;;;;;10.10;40.40;100529.66;5105478;28;20368;-69
2023/12/17 07:53:59;;;;;;;;;;;;;;;10.09;40.27;100534.19;5080513;28;19918;-69
2023/12/17 07:56:24;;;;;;;;;;;;;;;10.10;39.87;100529.66;5111942;28;19922;-68
2023/12/17 07:58:50;;;;;;;;;;;;;;;10.05;39.44;100536.41;5097362;28;19912;-67
2023/12/17 08:01:15;;;;;;;;;;;;;;;10.05;39.60;100523.00;5096767;28;19912;-68
2023/12/17 08:03:40;;;;;;;;;;;;;;;10.04;40.03;100515.97;5097054;28;19916;-68
2023/12/17 08:06:06;;;;;;;;;;;;;;;10.05;40.11;100516.81;5079159;28;19912;-69
2023/12/17 08:08:32;;;;;;;;;;;;;;;10.03;39.85;100511.63;5097494;28;20054;-68
2023/12/17 08:10:57;;;;;;;;;;;;;;;10.01;39.86;100521.72;5097057;28;20375;-68
2023/12/17 08:13:23;;;;;;;;;;;;;;;9.97;40.01;100514.22;5096653;28;19959;-69
2023/12/17 08:15:48;;;;;;;;;;;;;;;9.92;39.85;100503.22;5078662;28;19912;-69
2023/12/17 08:18:14;;;;;;;;;;;;;;;9.86;39.81;100499.44;5096789;28;20324;-69
2023/12/17 08:20:40;;;;;;;;;;;;;;;9.87;40.11;100488.53;5103364;28;20013;-69
2023/12/17 08:23:06;;;;;;;;;;;;;;;9.90;39.57;100498.06;5116987;28;19920;-69
2023/12/17 08:25:38;;;;;;;;;;;;;;;9.90;40.11;100492.69;5117081;28;19912;-68
2023/12/17 08:28:03;;;;;;;;;;;;;;;9.88;40.24;100487.53;5098718;28;19912;-68
2023/12/17 08:30:29;;;;;;;;;;;;;;;9.91;40.03;100488.97;5116739;28;20292;-69
2023/12/17 08:32:54;;;;;;;;;;;;;;;9.94;40.07;100491.31;5110613;28;19963;-68
2023/12/17 08:35:19;;;;;;;;;;;;;;;9.89;39.99;100496.38;5100869;28;20432;-69
2023/12/17 08:37:45;;;;;;;;;;;;;;;9.83;39.99;100489.94;5109860;28;20292;-68
2023/12/17 08:40:10;;;;;;;;;;;;;;;9.85;40.40;100485.19;5113471;28;19918;-68
2023/12/17 08:42:36;;;;;;;;;;;;;;;9.84;40.18;100480.03;5095872;28;19916;-69
2023/12/17 08:45:01;;;;;;;;;;;;;;;9.85;40.00;100468.28;5096345;28;20346;-68
2023/12/17 08:47:27;;;;;;;;;;;;;;;9.87;40.07;100467.06;5095753;28;20396;-68
2023/12/17 08:49:52;;;;;;;;;;;;;;;9.85;39.98;100466.44;5095797;28;20344;-68
2023/12/17 08:52:17;;;;;;;;;;;;;;;9.86;40.25;100457.38;5096270;28;19912;-69
2023/12/17 08:54:43;;;;;;;;;;;;;;;9.85;40.27;100441.47;5095092;28;20396;-68
2023/12/17 08:57:08;;;;;;;;;;;;;;;9.90;39.97;100439.06;5095780;28;19912;-68
2023/12/17 08:59:34;;;;;;;;;;;;;;;9.89;40.62;100435.53;5096364;28;19916;-69
2023/12/17 09:01:59;;;;;;;;;;;;;;;9.92;40.21;100438.84;5096160;28;19966;-68
2023/12/17 09:04:25;;;;;;;;;;;;;;;9.91;40.25;100434.50;5096205;28;20304;-69
2023/12/17 09:06:50;;;;;;;;;;;;;;;9.92;40.11;100433.47;5095591;28;20323;-69
2023/12/17 09:09:15;;;;;;;;;;;;;;;9.89;40.44;100421.28;5095789;28;20007;-68
2023/12/17 09:11:41;;;;;;;;;;;;;;;9.90;40.52;100412.22;5095145;28;19927;-69
2023/12/17 09:14:08;;;;;;;;;;;;;;;9.93;40.55;100403.78;5080762;28;19947;-68
2023/12/17 09:16:33;;;;;;;;;;;;;;;9.95;40.79;100412.47;5116016;28;20332;-69
2023/12/17 09:18:59;;;;;;;;;;;;;;;9.99;40.79;100407.56;5115978;28;19912;-69
2023/12/17 09:21:25;;;;;;;;;;;;;;;10.02;40.73;100405.31;5115700;28;19970;-69
2023/12/17 09:23:51;;;;;;;;;;;;;;;10.05;40.50;100412.16;5115947;28;19916;-69
2023/12/17 09:26:18;;;;;;;;;;;;;;;10.05;40.64;100412.16;5115659;28;19911;-69
2023/12/17 09:28:44;;;;;;;;;;;;;;;10.05;40.49;100415.69;5112919;28;19912;-69
2023/12/17 09:31:10;;;;;;;;;;;;;;;10.07;40.30;100402.06;5095184;28;20327;-69
2023/12/17 09:33:36;;;;;;;;;;;;;;;10.10;40.14;100403.53;5095113;28;20490;-69
2023/12/17 09:36:02;;;;;;;;;;;;;;;10.13;40.67;100401.31;5088776;28;20384;-69
2023/12/17 09:38:28;;;;;;;;;;;;;;;10.16;40.61;100398.25;5076913;28;19912;-69
2023/12/17 09:40:53;;;;;;;;;;;;;;;10.19;40.13;100399.69;5095466;28;20345;-69
2023/12/17 09:43:20;;;;;;;;;;;;;;;10.19;40.27;100400.50;5076973;28;19923;-69
2023/12/17 09:45:48;;;;;;;;;;;;;;;10.25;39.56;100404.28;5077217;28;19919;-69
2023/12/17 09:48:13;;;;;;;;;;;;;;;10.26;39.66;100397.91;5076942;28;19923;-69
2023/12/17 09:50:39;;;;;;;;;;;;;;;10.32;39.92;100397.16;5095261;28;19912;-68
2023/12/17 09:53:04;;;;;;;;;;;;;;;10.35;40.46;100394.09;5095265;28;19975;-69
2023/12/17 09:55:30;;;;;;;;;;;;;;;10.38;40.31;100382.97;5108955;28;19999;-70
2023/12/17 09:57:55;;;;;;;;;;;;;;;10.42;40.32;100381.56;5096332;28;19923;-70
2023/12/17 10:00:20;;;;;;;;;;;;;;;10.45;39.73;100367.72;5093769;28;19912;-69
2023/12/17 10:02:46;;;;;;;;;;;;;;;10.46;39.73;100371.25;5081608;28;19923;-69
2023/12/17 10:05:11;;;;;;;;;;;;;;;10.46;40.09;100372.09;5074397;28;19912;-70
2023/12/17 10:07:37;;;;;;;;;;;;;;;10.49;40.25;100386.97;5074472;28;19913;-69
2023/12/17 10:10:06;;;;;;;;;;;;;;;10.54;40.28;100372.97;5074528;28;19916;-69
2023/12/17 10:12:31;;;;;;;;;;;;;;;10.58;39.92;100360.81;5074130;28;19920;-69
2023/12/17 10:14:56;;;;;;;;;;;;;;;10.61;40.44;100360.41;5086104;28;19919;-70
2023/12/17 10:17:22;;;;;;;;;;;;;;;10.64;40.20;100350.13;5086804;28;19973;-69
2023/12/17 10:19:51;;;;;;;;;;;;;;;10.70;39.98;100347.66;5114828;28;19912;-69
2023/12/17 10:22:16;;;;;;;;;;;;;;;10.67;39.85;100348.88;5094820;28;19962;-69
2023/12/17 10:24:42;;;;;;;;;;;;;;;10.64;39.86;100354.63;5094246;28;20392;-69
2023/12/17 10:27:18;;;;;;;;;;;;;;;10.57;39.70;100362.66;5075806;28;20297;-69
2023/12/17 10:29:49;;;;;;;;;;;;;;;10.54;40.25;100343.44;5094067;28;19912;-69
2023/12/17 10:32:18;;;;;;;;;;;;;;;10.55;40.51;100345.91;5093985;28;20022;-69
2023/12/17 10:34:44;;;;;;;;;;;;;;;10.56;40.18;100331.44;5075899;28;20265;-69
2023/12/17 10:37:10;;;;;;;;;;;;;;;10.57;40.09;100327.75;5114542;28;19919;-69
2023/12/17 10:39:36;;;;;;;;;;;;;;;10.58;40.15;100336.63;5114352;28;19911;-69
2023/12/17 10:42:01;;;;;;;;;;;;;;;10.60;40.16;100335.41;5114442;28;20413;-69
2023/12/17 10:44:28;;;;;;;;;;;;;;;10.63;40.18;100324.28;5114088;28;19967;-69
2023/12/17 10:46:53;;;;;;;;;;;;;;;10.66;40.50;100325.75;5114569;28;19918;-69
2023/12/17 10:49:19;;;;;;;;;;;;;;;10.70;40.48;100323.47;5114235;28;19929;-67
2023/12/17 10:51:47;;;;;;;;;;;;;;;10.71;40.24;100319.78;5100731;28;20403;-69
2023/12/17 10:54:12;;;;;;;;;;;;;;;10.71;40.15;100325.97;5093233;28;19955;-69
2023/12/17 10:56:41;;;;;;;;;;;;;;;10.69;40.21;100314.59;5093816;28;19936;-69
2023/12/17 10:59:08;;;;;;;;;;;;;;;10.68;40.77;100310.25;5075633;28;19958;-69
2023/12/17 11:01:36;;;;;;;;;;;;;;;10.69;40.65;100303.03;5093418;28;19961;-70
2023/12/17 11:04:02;;;;;;;;;;;;;;;10.70;40.50;100302.84;5093725;28;20288;-70
2023/12/17 11:06:27;;;;;;;;;;;;;;;10.73;40.42;100296.22;5096439;28;19934;-69
2023/12/17 11:08:52;;;;;;;;;;;;;;;10.77;40.65;100278.69;5113992;28;19912;-69
2023/12/17 11:11:19;;;;;;;;;;;;;;;10.78;40.26;100294.59;5113637;28;19954;-70
2023/12/17 11:13:46;;;;;;;;;;;;;;;10.79;40.70;100293.59;5095476;28;19946;-69
2023/12/17 11:16:21;;;;;;;;;;;;;;;10.82;40.25;100284.28;5095932;28;19916;-69
2023/12/17 11:18:47;;;;;;;;;;;;;;;10.84;40.61;100295.66;5114101;28;19919;-69
2023/12/17 11:21:13;;;;;;;;;;;;;;;10.84;40.99;100291.09;5103226;28;19912;-69
2023/12/17 11:23:38;;;;;;;;;;;;;;;10.86;40.48;100285.53;5093963;28;20034;-69
2023/12/17 11:26:07;;;;;;;;;;;;;;;10.90;40.92;100286.81;5075641;28;20389;-69
2023/12/17 11:28:32;;;;;;;;;;;;;;;10.92;40.97;100284.75;5073265;28;19912;-69
2023/12/17 11:30:58;;;;;;;;;;;;;;;10.91;40.46;100284.97;5073123;28;19919;-69
2023/12/17 11:33:25;;;;;;;;;;;;;;;10.91;40.42;100288.47;5073351;28;19964;-70
2023/12/17 11:35:51;;;;;;;;;;;;;;;10.89;40.92;100285.16;5094040;28;20037;-69
2023/12/17 11:38:16;;;;;;;;;;;;;;;10.87;40.61;100281.03;5113648;28;19924;-69
2023/12/17 11:40:42;;;;;;;;;;;;;;;10.87;41.14;100287.22;5113605;28;20392;-69
2023/12/17 11:43:07;;;;;;;;;;;;;;;10.89;40.67;100287.00;5113647;28;19915;-70
2023/12/17 11:45:37;;;;;;;;;;;;;;;10.89;40.81;100282.47;5113642;28;19912;-69
2023/12/17 11:48:08;;;;;;;;;;;;;;;10.93;40.62;100277.53;5095489;28;19959;-69
2023/12/17 11:50:40;;;;;;;;;;;;;;;10.97;40.62;100270.72;5101835;28;19912;-69
2023/12/17 11:53:05;;;;;;;;;;;;;;;10.96;40.81;100274.44;5093567;28;19920;-69
2023/12/17 11:55:39;;;;;;;;;;;;;;;10.97;40.50;100278.78;5092592;28;19912;-69
2023/12/17 11:58:05;;;;;;;;;;;;;;;10.97;40.40;100282.28;5109375;28;20006;-69
2023/12/17 12:00:30;;;;;;;;;;;;;;;11.00;40.94;100283.75;5095143;28;20002;-69
2023/12/17 12:02:56;;;;;;;;;;;;;;;11.01;40.91;100261.22;5099242;28;19974;-69
2023/12/17 12:05:22;;;;;;;;;;;;;;;11.03;40.60;100249.25;5093028;28;20304;-69
2023/12/17 12:07:52;;;;;;;;;;;;;;;11.03;40.63;100262.69;5092993;28;19912;-69
2023/12/17 12:10:17;;;;;;;;;;;;;;;11.06;41.05;100249.88;5112657;28;20301;-69
2023/12/17 12:12:42;;;;;;;;;;;;;;;11.07;40.90;100257.75;5112971;28;19927;-69
2023/12/17 12:15:08;;;;;;;;;;;;;;;11.04;40.66;100248.19;5113375;28;20337;-69
2023/12/17 12:17:40;;;;;;;;;;;;;;;11.04;40.96;100248.19;5109894;28;19912;-69
2023/12/17 12:20:09;;;;;;;;;;;;;;;11.07;41.15;100243.44;5092770;28;19912;-69
2023/12/17 12:22:35;;;;;;;;;;;;;;;11.08;41.15;100239.75;5073598;28;20396;-69
2023/12/17 12:25:00;;;;;;;;;;;;;;;11.08;40.95;100239.75;5077713;28;19912;-69
2023/12/17 12:27:25;;;;;;;;;;;;;;;11.08;41.08;100224.44;5096847;28;19923;-69
2023/12/17 12:29:55;;;;;;;;;;;;;;;11.10;41.82;100227.75;5096788;28;19960;-69
2023/12/17 12:32:33;;;;;;;;;;;;;;;11.12;41.55;100211.44;5096779;28;19912;-69